logo
Search for airport 
image banner adimage banner adimage banner ad
image banner ad

MMCDV - Campo David

Located in Huimanguillo, Mexico

ICAO - , IATA -

Data provided by Airmate  

General information

Coordinates: N17°38'16" W93°24'30"
Elevation is 164 feet MSL.
Magnetic variation is 1° East
View others Airports in Tabasco

Operational data

Special qualification required
Current time UTC:
Current local time:
METAR: MMVA 251446Z 09011KT 7SM FEW015 SCT230 30/25 A2999 RMK SLP154 52014 953 8/108
TAF: TAF MMVA 250519Z 2506/2606 06005KT P6SM SCT080 FM251700 06010KT P6SM SCT020 FM260000 06010KT P6SM BKN015 BKN080 PROB40 2600/2604 5SM TSRA BKN012CB
View NOTAMs / SUP AIP / TFR affecting this airport [VIEW]
Communications frequencies: [VIEW]

Runways:

RWY identifierQFULength (ft)Width (ft)SurfaceLDA (ft)
28280°237916GRAS
10100°237916GRAS

Airport contact information

Address: Huimanguillo Mexico

Satellite view of MMCDV